Time;durP1;ratioP1;P1;durP2;ratioP2;P2;SDS_P1;SDS_P2;PMS_P1;PMS_P2;Temp;Humidity;BMP_temperature;BMP_pressure;BME280_temperature;BME280_humidity;BME280_pressure;Samples;Min_cycle;Max_cycle;Signal;HPM_P1;HPM_P2
2024/02/03 00:01:54;;;;;;;;;;;;;;;7.47;100.00;102091.88;5080244;28;20269;-74
2024/02/03 00:04:19;;;;;;;;;;;;;;;7.48;100.00;102094.41;5086050;28;19998;-74
2024/02/03 00:06:44;;;;;;;;;;;;;;;7.50;100.00;102091.56;5071589;28;19998;-74
2024/02/03 00:09:10;;;;;;;;;;;;;;;7.49;100.00;102082.72;5088767;28;19920;-74
2024/02/03 00:11:35;;;;;;;;;;;;;;;7.50;100.00;102075.50;5083792;28;19920;-74
2024/02/03 00:14:00;;;;;;;;;;;;;;;7.51;100.00;102077.19;5081466;28;20403;-74
2024/02/03 00:16:26;;;;;;;;;;;;;;;7.55;100.00;102078.59;5078447;28;19929;-74
2024/02/03 00:18:51;;;;;;;;;;;;;;;7.51;100.00;102085.22;5079055;28;19951;-74
2024/02/03 00:21:16;;;;;;;;;;;;;;;7.57;100.00;102081.97;5078131;28;19988;-74
2024/02/03 00:23:45;;;;;;;;;;;;;;;7.54;100.00;102096.50;5083189;28;19920;-74
2024/02/03 00:26:10;;;;;;;;;;;;;;;7.60;100.00;102081.66;5091334;28;20271;-74
2024/02/03 00:28:35;;;;;;;;;;;;;;;7.62;100.00;102085.03;5088862;28;19924;-74
2024/02/03 00:31:01;;;;;;;;;;;;;;;7.62;100.00;102092.25;5084448;28;20329;-74
2024/02/03 00:33:26;;;;;;;;;;;;;;;7.59;100.00;102093.38;5087046;28;20297;-75
2024/02/03 00:35:51;;;;;;;;;;;;;;;7.58;100.00;102072.94;5082023;28;19963;-74
2024/02/03 00:38:16;;;;;;;;;;;;;;;7.61;100.00;102069.94;5092068;28;19939;-74
2024/02/03 00:40:41;;;;;;;;;;;;;;;7.58;100.00;102078.31;5090117;28;19939;-74
2024/02/03 00:43:07;;;;;;;;;;;;;;;7.62;100.00;102076.16;5084270;28;20043;-74
2024/02/03 00:45:32;;;;;;;;;;;;;;;7.63;100.00;102081.38;5088352;28;19947;-74
2024/02/03 00:47:57;;;;;;;;;;;;;;;7.64;100.00;102066.16;5088016;28;19928;-74
2024/02/03 00:50:23;;;;;;;;;;;;;;;7.64;100.00;102066.97;5089650;28;19924;-74
2024/02/03 00:52:49;;;;;;;;;;;;;;;7.63;100.00;102078.69;5092375;28;19920;-74
2024/02/03 00:55:14;;;;;;;;;;;;;;;7.64;100.00;102076.88;5089534;28;20062;-73
2024/02/03 00:57:39;;;;;;;;;;;;;;;7.69;100.00;102082.59;5083195;28;20375;-73
2024/02/03 01:00:06;;;;;;;;;;;;;;;7.72;100.00;102080.50;5085279;28;19979;-73
2024/02/03 01:02:31;;;;;;;;;;;;;;;7.76;100.00;102077.53;5094289;28;19920;-73
2024/02/03 01:04:56;;;;;;;;;;;;;;;7.79;100.00;102079.88;5092609;28;19930;-73
2024/02/03 01:07:22;;;;;;;;;;;;;;;7.80;100.00;102078.91;5086481;28;19927;-73
2024/02/03 01:09:47;;;;;;;;;;;;;;;7.83;100.00;102073.25;5093606;28;20411;-73
2024/02/03 01:12:13;;;;;;;;;;;;;;;7.83;100.00;102076.78;5080781;28;19935;-73
2024/02/03 01:14:38;;;;;;;;;;;;;;;7.80;100.00;102070.84;5093155;28;20409;-73
2024/02/03 01:17:04;;;;;;;;;;;;;;;7.87;100.00;102067.44;5087646;28;19920;-73
2024/02/03 01:19:30;;;;;;;;;;;;;;;7.87;100.00;102067.44;5077456;28;19920;-73
2024/02/03 01:21:55;;;;;;;;;;;;;;;7.87;100.00;102071.97;5074399;28;20023;-73
2024/02/03 01:24:20;;;;;;;;;;;;;;;7.84;100.00;102075.78;5082978;28;19924;-73
2024/02/03 01:26:45;;;;;;;;;;;;;;;7.86;100.00;102078.31;5081156;28;20070;-74
2024/02/03 01:29:11;;;;;;;;;;;;;;;7.89;100.00;102059.25;5106810;28;19919;-73
2024/02/03 01:31:37;;;;;;;;;;;;;;;7.97;100.00;102063.88;5092827;28;19920;-74
2024/02/03 01:34:02;;;;;;;;;;;;;;;7.89;100.00;102060.09;5092264;28;20014;-74
2024/02/03 01:36:30;;;;;;;;;;;;;;;7.82;100.00;102058.16;5097967;28;19938;-71
2024/02/03 01:38:56;;;;;;;;;;;;;;;7.89;100.00;102059.25;5083278;28;20367;-74
2024/02/03 01:41:21;;;;;;;;;;;;;;;7.86;100.00;102059.56;5079945;28;19938;-73
2024/02/03 01:43:46;;;;;;;;;;;;;;;7.91;100.00;102057.28;5079746;28;20443;-73
2024/02/03 01:46:11;;;;;;;;;;;;;;;7.89;100.00;102053.91;5088857;28;20402;-73
2024/02/03 01:48:37;;;;;;;;;;;;;;;7.83;100.00;102062.53;5084909;28;20003;-74
2024/02/03 01:51:02;;;;;;;;;;;;;;;7.81;100.00;102068.03;5094154;28;20011;-74
2024/02/03 01:53:28;;;;;;;;;;;;;;;7.84;100.00;102056.16;5087299;28;19950;-74
2024/02/03 01:55:53;;;;;;;;;;;;;;;7.87;100.00;102058.56;5093630;28;19931;-74
2024/02/03 01:58:19;;;;;;;;;;;;;;;7.86;100.00;102056.88;5077112;28;20391;-73
2024/02/03 02:00:44;;;;;;;;;;;;;;;7.87;100.00;102053.19;5089653;28;19938;-74
2024/02/03 02:03:10;;;;;;;;;;;;;;;7.83;100.00;102062.53;5089686;28;20002;-73
2024/02/03 02:05:35;;;;;;;;;;;;;;;7.92;100.00;102064.31;5085465;28;19942;-73
2024/02/03 02:08:00;;;;;;;;;;;;;;;7.87;100.00;102063.91;5079309;28;20016;-74
2024/02/03 02:10:25;;;;;;;;;;;;;;;7.89;100.00;102059.25;5084157;28;20394;-74
2024/02/03 02:12:51;;;;;;;;;;;;;;;7.83;100.00;102051.81;5086943;28;19970;-73
2024/02/03 02:15:16;;;;;;;;;;;;;;;7.81;100.00;102060.00;5084251;28;20367;-73
2024/02/03 02:17:41;;;;;;;;;;;;;;;7.79;100.00;102051.25;5091143;28;19957;-73
2024/02/03 02:20:07;;;;;;;;;;;;;;;7.81;100.00;102056.47;5085831;28;20180;-73
2024/02/03 02:22:33;;;;;;;;;;;;;;;7.82;100.00;102052.78;5087988;28;19938;-73
2024/02/03 02:24:58;;;;;;;;;;;;;;;7.87;100.00;102055.88;5090796;28;19924;-73
2024/02/03 02:27:23;;;;;;;;;;;;;;;7.85;100.00;102057.84;5084192;28;19924;-75
2024/02/03 02:29:48;;;;;;;;;;;;;;;7.85;100.00;102057.84;5087762;28;20301;-72
2024/02/03 02:32:14;;;;;;;;;;;;;;;7.89;100.00;102060.09;5097444;28;19920;-74
2024/02/03 02:34:39;;;;;;;;;;;;;;;7.89;100.00;102053.91;5086565;28;19923;-74
2024/02/03 02:37:05;;;;;;;;;;;;;;;7.93;100.00;102055.28;5093972;28;20327;-74
2024/02/03 02:39:33;;;;;;;;;;;;;;;7.90;100.00;102050.22;5079742;28;19979;-72
2024/02/03 02:41:58;;;;;;;;;;;;;;;7.89;100.00;102048.53;5083442;28;19931;-72
2024/02/03 02:44:23;;;;;;;;;;;;;;;7.86;100.00;102049.66;5083950;28;19928;-73
2024/02/03 02:46:49;;;;;;;;;;;;;;;7.94;100.00;102040.88;5087249;28;19920;-74
2024/02/03 02:49:14;;;;;;;;;;;;;;;7.93;100.00;102051.75;5090537;28;20389;-73
2024/02/03 02:51:39;;;;;;;;;;;;;;;7.90;100.00;102044.84;5083354;28;19920;-73
2024/02/03 02:54:04;;;;;;;;;;;;;;;7.88;100.00;102047.66;5075776;28;19920;-73
2024/02/03 02:56:29;;;;;;;;;;;;;;;7.88;100.00;102047.66;5088798;28;19920;-75
2024/02/03 02:58:55;;;;;;;;;;;;;;;7.89;100.00;102043.16;5091843;28;19935;-73
2024/02/03 03:01:20;;;;;;;;;;;;;;;7.84;100.00;102045.44;5087616;28;20027;-73
2024/02/03 03:03:45;;;;;;;;;;;;;;;7.80;100.00;102044.91;5077760;28;19956;-73
2024/02/03 03:06:10;;;;;;;;;;;;;;;7.84;100.00;102040.94;5090720;28;19923;-73
2024/02/03 03:08:36;;;;;;;;;;;;;;;7.80;100.00;102044.06;5085964;28;19924;-74
2024/02/03 03:11:01;;;;;;;;;;;;;;;7.79;100.00;102043.22;5087207;28;20335;-73
2024/02/03 03:13:26;;;;;;;;;;;;;;;7.72;100.00;102034.94;5088085;28;20020;-73
2024/02/03 03:15:51;;;;;;;;;;;;;;;7.77;100.00;102038.97;5090649;28;19964;-73
2024/02/03 03:18:17;;;;;;;;;;;;;;;7.78;100.00;102025.44;5092233;28;19978;-73
2024/02/03 03:20:43;;;;;;;;;;;;;;;7.73;100.00;102027.72;5094036;28;19964;-73
2024/02/03 03:23:08;;;;;;;;;;;;;;;7.69;100.00;102020.97;5093877;28;20387;-73
2024/02/03 03:25:36;;;;;;;;;;;;;;;7.64;100.00;102023.28;5088287;28;19990;-73
2024/02/03 03:28:01;;;;;;;;;;;;;;;7.67;100.00;102015.75;5084229;28;19920;-73
2024/02/03 03:30:26;;;;;;;;;;;;;;;7.66;100.00;102016.75;5071581;28;20027;-73
2024/02/03 03:32:53;;;;;;;;;;;;;;;7.55;100.00;102019.63;5088806;28;20331;-73
2024/02/03 03:35:18;;;;;;;;;;;;;;;7.50;100.00;102024.59;5100046;28;19936;-73
2024/02/03 03:37:43;;;;;;;;;;;;;;;7.51;100.00;102023.59;5094579;28;19920;-74
2024/02/03 03:40:09;;;;;;;;;;;;;;;7.44;100.00;102024.19;5091139;28;19924;-74
2024/02/03 03:42:34;;;;;;;;;;;;;;;7.44;100.00;102018.81;5090100;28;19924;-73
2024/02/03 03:44:59;;;;;;;;;;;;;;;7.43;100.00;102019.81;5074305;28;20441;-73
2024/02/03 03:47:25;;;;;;;;;;;;;;;7.44;100.00;102016.16;5094507;28;19920;-73
2024/02/03 03:49:50;;;;;;;;;;;;;;;7.46;100.00;102020.50;5084864;28;19999;-73
2024/02/03 03:52:15;;;;;;;;;;;;;;;7.38;100.00;102008.72;5088152;28;19919;-73
2024/02/03 03:54:40;;;;;;;;;;;;;;;7.40;100.00;102008.56;5090370;28;19924;-74
2024/02/03 03:57:06;;;;;;;;;;;;;;;7.40;100.00;102001.38;5087595;28;19966;-75
2024/02/03 03:59:31;;;;;;;;;;;;;;;7.36;100.00;102009.84;5087727;28;19931;-75
2024/02/03 04:01:56;;;;;;;;;;;;;;;7.37;100.00;102001.66;5087201;28;19981;-75
2024/02/03 04:04:21;;;;;;;;;;;;;;;7.33;100.00;102015.47;5097131;28;19919;-74
2024/02/03 04:06:47;;;;;;;;;;;;;;;7.38;100.00;102014.06;5087722;28;20018;-75
2024/02/03 04:09:12;;;;;;;;;;;;;;;7.39;100.00;102020.25;5086708;28;19969;-73
2024/02/03 04:11:37;;;;;;;;;;;;;;;7.37;100.00;102023.09;5082830;28;20023;-73
2024/02/03 04:14:03;;;;;;;;;;;;;;;7.39;100.00;102006.88;5086568;28;20276;-73
2024/02/03 04:16:28;;;;;;;;;;;;;;;7.40;100.00;102022.81;5095046;28;20375;-73
2024/02/03 04:18:53;;;;;;;;;;;;;;;7.38;100.00;102014.06;5096780;28;19923;-73
2024/02/03 04:21:18;;;;;;;;;;;;;;;7.40;100.00;102006.75;5079840;28;20007;-73
2024/02/03 04:23:44;;;;;;;;;;;;;;;7.38;100.00;102006.03;5089297;28;19920;-79
2024/02/03 04:26:09;;;;;;;;;;;;;;;7.32;100.00;102008.47;5086873;28;19964;-76
2024/02/03 04:28:34;;;;;;;;;;;;;;;7.37;100.00;102012.38;5084575;28;19927;-78
2024/02/03 04:31:02;;;;;;;;;;;;;;;7.39;100.00;102004.19;5088647;28;19920;-75
2024/02/03 04:33:27;;;;;;;;;;;;;;;7.39;100.00;102009.53;5085073;28;19928;-76
2024/02/03 04:35:55;;;;;;;;;;;;;;;7.44;100.00;102016.16;5081668;28;19928;-75
2024/02/03 04:38:21;;;;;;;;;;;;;;;7.43;100.00;102011.78;5083800;28;19973;-78
2024/02/03 04:40:46;;;;;;;;;;;;;;;7.43;100.00;102010.94;5091621;28;19920;-75
2024/02/03 04:43:11;;;;;;;;;;;;;;;7.42;100.00;102018.13;5079270;28;19978;-77
2024/02/03 04:45:36;;;;;;;;;;;;;;;7.42;100.00;102017.28;5080212;28;19924;-75
2024/02/03 04:48:02;;;;;;;;;;;;;;;7.46;100.00;102012.47;5078772;28;19920;-78
2024/02/03 04:50:27;;;;;;;;;;;;;;;7.51;100.00;102012.88;5074248;28;19934;-75
2024/02/03 04:52:53;;;;;;;;;;;;;;;7.47;100.00;102014.16;5093904;28;19984;-75
2024/02/03 04:55:18;;;;;;;;;;;;;;;7.50;100.00;102006.66;5091147;28;19963;-75
2024/02/03 04:57:43;;;;;;;;;;;;;;;7.53;100.00;102005.53;5090081;28;19970;-75
2024/02/03 05:00:09;;;;;;;;;;;;;;;7.49;100.00;102001.47;5078470;28;19990;-76
2024/02/03 05:02:34;;;;;;;;;;;;;;;7.52;100.00;101995.81;5083494;28;19920;-76
2024/02/03 05:04:59;;;;;;;;;;;;;;;7.53;100.00;102009.06;5078786;28;20023;-77
2024/02/03 05:07:25;;;;;;;;;;;;;;;7.53;100.00;101995.66;5085547;28;20011;-76
2024/02/03 05:09:51;;;;;;;;;;;;;;;7.55;100.00;101998.22;5086519;28;19924;-76
2024/02/03 05:12:16;;;;;;;;;;;;;;;7.56;100.00;101995.38;5080209;28;20332;-76
2024/02/03 05:14:41;;;;;;;;;;;;;;;7.59;100.00;101988.84;5075778;28;20367;-77
2024/02/03 05:17:08;;;;;;;;;;;;;;;7.63;100.00;101994.78;5091314;28;19920;-77
2024/02/03 05:19:33;;;;;;;;;;;;;;;7.64;100.00;101988.44;5089054;28;19920;-76
2024/02/03 05:21:58;;;;;;;;;;;;;;;7.67;100.00;101990.81;5085782;28;20378;-76
2024/02/03 05:24:23;;;;;;;;;;;;;;;7.70;100.00;101990.50;5086589;28;20329;-79
2024/02/03 05:26:49;;;;;;;;;;;;;;;7.65;100.00;101988.25;5089683;28;19928;-77
2024/02/03 05:29:14;;;;;;;;;;;;;;;7.67;100.00;101994.31;5090128;28;19926;-80
2024/02/03 05:31:42;;;;;;;;;;;;;;;7.68;100.00;101987.13;5080217;28;20315;-77
2024/02/03 05:34:07;;;;;;;;;;;;;;;7.70;100.00;101986.00;5081408;28;20377;-77
2024/02/03 05:36:32;;;;;;;;;;;;;;;7.72;100.00;101991.19;5084571;28;19920;-78
2024/02/03 05:38:57;;;;;;;;;;;;;;;7.76;100.00;101997.13;5082490;28;19970;-80
2024/02/03 05:41:23;;;;;;;;;;;;;;;7.74;100.00;101992.75;5092774;28;19924;-78
2024/02/03 05:43:48;;;;;;;;;;;;;;;7.73;100.00;101991.06;5113174;28;20265;-78
2024/02/03 05:46:13;;;;;;;;;;;;;;;7.72;100.00;101989.38;5095338;28;20473;-78
2024/02/03 05:48:41;;;;;;;;;;;;;;;7.76;100.00;101991.75;5091115;28;19920;-78
2024/02/03 05:51:06;;;;;;;;;;;;;;;7.71;100.00;101993.03;5092865;28;19928;-78
2024/02/03 05:53:35;;;;;;;;;;;;;;;7.73;100.00;101985.69;5078325;28;19920;-78
2024/02/03 05:56:00;;;;;;;;;;;;;;;7.72;100.00;101983.16;5089124;28;20372;-78
2024/02/03 05:58:25;;;;;;;;;;;;;;;7.72;100.00;101986.69;5079549;28;19927;-78
2024/02/03 06:00:51;;;;;;;;;;;;;;;7.74;100.00;101987.38;5087648;28;19970;-78
2024/02/03 06:03:16;;;;;;;;;;;;;;;7.73;100.00;101976.78;5083629;28;19967;-77
2024/02/03 06:05:41;;;;;;;;;;;;;;;7.74;100.00;101981.16;5076488;28;19956;-78
2024/02/03 06:08:07;;;;;;;;;;;;;;;7.74;100.00;101981.16;5087073;28;19920;-77
2024/02/03 06:10:32;;;;;;;;;;;;;;;7.81;100.00;101976.03;5084872;28;19920;-77
2024/02/03 06:12:58;;;;;;;;;;;;;;;7.80;100.00;101985.06;5083309;28;19924;-77
2024/02/03 06:15:23;;;;;;;;;;;;;;;7.79;100.00;101969.97;5081637;28;20050;-78
2024/02/03 06:17:50;;;;;;;;;;;;;;;7.81;100.00;101981.41;5091508;28;19920;-77
2024/02/03 06:20:15;;;;;;;;;;;;;;;7.83;100.00;101979.41;5088572;28;19928;-78
2024/02/03 06:22:40;;;;;;;;;;;;;;;7.88;100.00;101980.66;5089828;28;19924;-77
2024/02/03 06:25:06;;;;;;;;;;;;;;;7.86;100.00;101979.94;5080422;28;19996;-77
2024/02/03 06:27:31;;;;;;;;;;;;;;;7.86;100.00;101979.94;5087401;28;19977;-77
2024/02/03 06:29:56;;;;;;;;;;;;;;;7.83;100.00;101979.41;5074908;28;19920;-78
2024/02/03 06:32:21;;;;;;;;;;;;;;;7.86;100.00;101971.06;5085282;28;19959;-78
2024/02/03 06:34:47;;;;;;;;;;;;;;;7.86;100.00;101968.41;5089479;28;19916;-78
2024/02/03 06:37:15;;;;;;;;;;;;;;;7.88;100.00;101977.13;5089167;28;20299;-77
2024/02/03 06:39:40;;;;;;;;;;;;;;;7.90;100.00;101975.16;5087413;28;19920;-78
2024/02/03 06:42:06;;;;;;;;;;;;;;;7.84;100.00;101983.78;5086045;28;19992;-73
2024/02/03 06:44:33;;;;;;;;;;;;;;;7.86;100.00;101977.25;5081787;28;20037;-74
2024/02/03 06:46:59;;;;;;;;;;;;;;;7.85;100.00;101969.38;5089398;28;20410;-74
2024/02/03 06:49:24;;;;;;;;;;;;;;;7.88;100.00;101966.41;5088846;28;19975;-74
2024/02/03 06:51:49;;;;;;;;;;;;;;;7.89;100.00;101982.34;5081730;28;20430;-76
2024/02/03 06:54:14;;;;;;;;;;;;;;;7.89;100.00;101976.13;5079180;28;20033;-76
2024/02/03 06:56:39;;;;;;;;;;;;;;;7.86;100.00;101985.31;5081548;28;20269;-76
2024/02/03 06:59:05;;;;;;;;;;;;;;;7.89;100.00;101990.38;5089773;28;20284;-76
2024/02/03 07:01:30;;;;;;;;;;;;;;;7.93;100.00;101984.72;5083271;28;19998;-76
2024/02/03 07:03:55;;;;;;;;;;;;;;;7.89;100.00;101984.19;5087912;28;19924;-76
2024/02/03 07:06:20;;;;;;;;;;;;;;;7.88;100.00;101987.84;5084536;28;19982;-76
2024/02/03 07:08:46;;;;;;;;;;;;;;;7.90;100.00;101980.50;5070158;28;19924;-78
2024/02/03 07:11:11;;;;;;;;;;;;;;;7.97;100.00;101986.94;5078342;28;19966;-77
2024/02/03 07:13:37;;;;;;;;;;;;;;;7.90;100.00;101988.56;5082395;28;19924;-77
2024/02/03 07:16:03;;;;;;;;;;;;;;;7.89;100.00;101989.53;5079401;28;20336;-77
2024/02/03 07:18:28;;;;;;;;;;;;;;;7.96;100.00;101979.88;5076734;28;19924;-77
2024/02/03 07:20:56;;;;;;;;;;;;;;;7.94;100.00;101983.72;5080223;28;20288;-77
2024/02/03 07:23:21;;;;;;;;;;;;;;;7.87;100.00;101986.16;5071013;28;19935;-76
2024/02/03 07:25:47;;;;;;;;;;;;;;;7.81;100.00;101998.34;5083243;28;19920;-76
2024/02/03 07:28:12;;;;;;;;;;;;;;;7.82;100.00;102000.03;5086957;28;19927;-75
2024/02/03 07:30:37;;;;;;;;;;;;;;;7.80;100.00;101991.28;5085014;28;19936;-74
2024/02/03 07:33:04;;;;;;;;;;;;;;;7.77;100.00;101994.28;5076585;28;19920;-74
2024/02/03 07:35:29;;;;;;;;;;;;;;;7.79;100.00;101991.44;5070768;28;19940;-73
2024/02/03 07:37:55;;;;;;;;;;;;;;;7.77;100.00;101988.03;5078583;28;19920;-77
2024/02/03 07:40:20;;;;;;;;;;;;;;;7.85;100.00;101972.06;5066070;22;20019;-78
2024/02/03 07:42:45;;;;;;;;;;;;;;;7.83;100.00;101982.09;5049570;28;19924;-78
2024/02/03 07:45:11;;;;;;;;;;;;;;;7.85;100.00;101969.38;5049137;28;19932;-78
2024/02/03 07:47:36;;;;;;;;;;;;;;;7.90;100.00;101983.19;5049752;28;19940;-77
2024/02/03 07:50:07;;;;;;;;;;;;;;;7.87;100.00;101986.16;5049459;28;19924;-77
2024/02/03 07:52:32;;;;;;;;;;;;;;;7.88;100.00;101994.06;5049517;28;19971;-77
2024/02/03 07:54:57;;;;;;;;;;;;;;;7.90;100.00;101999.28;5049937;28;19928;-74
2024/02/03 07:57:23;;;;;;;;;;;;;;;7.93;100.00;101990.94;5049796;28;19991;-77
2024/02/03 07:59:48;;;;;;;;;;;;;;;7.95;100.00;102001.50;5048886;28;19920;-78
2024/02/03 08:02:13;;;;;;;;;;;;;;;7.94;100.00;102006.03;5050509;28;19998;-77
2024/02/03 08:04:38;;;;;;;;;;;;;;;7.92;100.00;102009.84;5049826;28;19929;-76
2024/02/03 08:07:03;;;;;;;;;;;;;;;7.95;100.00;102006.88;5049585;28;19917;-76
2024/02/03 08:09:29;;;;;;;;;;;;;;;7.93;100.00;102003.47;5050594;28;19931;-76
2024/02/03 08:11:58;;;;;;;;;;;;;;;7.96;100.00;102012.06;5049205;28;19967;-78
2024/02/03 08:14:23;;;;;;;;;;;;;;;7.96;100.00;102012.06;5049112;28;20007;-78
2024/02/03 08:16:48;;;;;;;;;;;;;;;8.02;100.00;102014.16;5050845;28;19928;-74
2024/02/03 08:19:13;;;;;;;;;;;;;;;7.98;100.00;102012.75;5049114;28;20008;-77
2024/02/03 08:21:38;;;;;;;;;;;;;;;7.99;100.00;102010.94;5049738;28;19974;-77
2024/02/03 08:24:04;;;;;;;;;;;;;;;7.96;100.00;102028.16;5050795;28;19956;-77
2024/02/03 08:26:29;;;;;;;;;;;;;;;7.94;100.00;102019.44;5048954;28;20214;-77
2024/02/03 08:28:58;;;;;;;;;;;;;;;7.96;100.00;102019.28;5049605;28;19921;-77
2024/02/03 08:31:23;;;;;;;;;;;;;;;7.93;100.00;102022.25;5049711;28;20020;-76
2024/02/03 08:33:48;;;;;;;;;;;;;;;7.89;100.00;102017.19;5048592;28;20019;-75
2024/02/03 08:36:13;;;;;;;;;;;;;;;7.89;100.00;102021.72;5049266;28;20574;-75
2024/02/03 08:38:39;;;;;;;;;;;;;;;7.84;100.00;102015.97;5051632;28;20383;-75
2024/02/03 08:41:04;;;;;;;;;;;;;;;7.80;100.00;102022.59;5048782;28;20300;-75
2024/02/03 08:43:29;;;;;;;;;;;;;;;7.82;100.00;102020.63;5049052;28;20432;-75
2024/02/03 08:45:54;;;;;;;;;;;;;;;7.74;100.00;102029.41;5049363;28;20356;-76
2024/02/03 08:48:20;;;;;;;;;;;;;;;7.77;100.00;102030.94;5047619;28;19940;-76
2024/02/03 08:50:51;;;;;;;;;;;;;;;7.74;100.00;102024.91;5048878;28;20088;-76
2024/02/03 08:53:16;;;;;;;;;;;;;;;7.72;100.00;102026.03;5049434;28;19921;-76
2024/02/03 08:55:42;;;;;;;;;;;;;;;7.68;100.00;102020.13;5048064;28;19925;-76
2024/02/03 08:58:07;;;;;;;;;;;;;;;7.70;100.00;102015.47;5048730;28;19925;-76
2024/02/03 09:00:32;;;;;;;;;;;;;;;7.72;100.00;102029.56;5040513;28;19937;-76
2024/02/03 09:02:57;;;;;;;;;;;;;;;7.76;100.00;102015.88;5048221;28;19925;-77
2024/02/03 09:05:22;;;;;;;;;;;;;;;7.76;100.00;102015.88;5048587;28;19920;-76
2024/02/03 09:07:49;;;;;;;;;;;;;;;7.78;100.00;102024.59;5049357;28;20030;-76
2024/02/03 09:10:14;;;;;;;;;;;;;;;7.81;100.00;102029.66;5048394;28;19924;-76
2024/02/03 09:12:40;;;;;;;;;;;;;;;7.81;100.00;102029.66;5048860;28;20336;-76
2024/02/03 09:15:05;;;;;;;;;;;;;;;7.80;100.00;102014.56;5048803;28;20371;-76
2024/02/03 09:17:30;;;;;;;;;;;;;;;7.79;100.00;102012.88;5048810;28;20336;-77
2024/02/03 09:19:55;;;;;;;;;;;;;;;7.84;100.00;102013.28;5047505;28;20361;-77
2024/02/03 09:22:21;;;;;;;;;;;;;;;7.86;100.00;102019.34;5048368;28;19920;-77
2024/02/03 09:24:46;;;;;;;;;;;;;;;7.87;100.00;102007.63;5049620;28;19995;-78
2024/02/03 09:27:11;;;;;;;;;;;;;;;7.86;100.00;102005.94;5048863;28;20043;-78
2024/02/03 09:29:42;;;;;;;;;;;;;;;7.87;100.00;102015.66;5047558;28;20008;-77
2024/02/03 09:32:08;;;;;;;;;;;;;;;7.91;100.00;102017.06;5049103;28;19990;-77
2024/02/03 09:34:33;;;;;;;;;;;;;;;7.91;100.00;102009.00;5047513;28;19921;-77
2024/02/03 09:37:01;;;;;;;;;;;;;;;7.96;100.00;102009.38;5048442;28;19933;-77
2024/02/03 09:39:26;;;;;;;;;;;;;;;8.03;100.00;102002.44;5054091;28;19921;-77
2024/02/03 09:41:54;;;;;;;;;;;;;;;8.18;100.00;102005.44;5068726;28;19920;-77
2024/02/03 09:44:20;;;;;;;;;;;;;;;8.23;100.00;102002.28;5068322;28;19924;-77
2024/02/03 09:46:45;;;;;;;;;;;;;;;8.21;100.00;102019.56;5068710;28;20395;-77
2024/02/03 09:49:10;;;;;;;;;;;;;;;8.17;100.00;102022.53;5068441;28;19932;-77
2024/02/03 09:51:36;;;;;;;;;;;;;;;8.22;100.00;102022.06;5048964;28;20007;-75
2024/02/03 09:54:01;;;;;;;;;;;;;;;8.21;100.00;102025.75;5069048;28;19920;-77
2024/02/03 09:56:26;;;;;;;;;;;;;;;8.36;100.00;102031.44;5067935;28;19920;-76
2024/02/03 09:58:51;;;;;;;;;;;;;;;8.38;100.00;102020.53;5062479;28;19926;-75
2024/02/03 10:01:17;;;;;;;;;;;;;;;8.38;100.00;102024.06;5067797;28;20287;-76
2024/02/03 10:03:46;;;;;;;;;;;;;;;8.37;100.00;102029.56;5067418;28;19931;-77
2024/02/03 10:06:11;;;;;;;;;;;;;;;8.35;100.00;102027.88;5067095;28;20335;-75
2024/02/03 10:08:36;;;;;;;;;;;;;;;8.40;100.00;102029.28;5063967;28;19927;-77
2024/02/03 10:11:01;;;;;;;;;;;;;;;8.50;100.00;102038.09;5068465;28;19927;-76
2024/02/03 10:13:27;;;;;;;;;;;;;;;8.48;100.00;102037.41;5071305;28;19924;-76
2024/02/03 10:15:59;;;;;;;;;;;;;;;8.49;100.00;102034.59;5072012;28;19978;-77
2024/02/03 10:18:24;;;;;;;;;;;;;;;8.59;100.00;102033.66;5065978;28;19927;-77
2024/02/03 10:20:52;;;;;;;;;;;;;;;8.62;100.00;102039.59;5071107;28;19921;-77
2024/02/03 10:23:17;;;;;;;;;;;;;;;8.55;100.00;102043.03;5073035;28;19920;-77
2024/02/03 10:25:43;;;;;;;;;;;;;;;8.58;100.00;102032.81;5070907;28;19974;-77
2024/02/03 10:28:09;;;;;;;;;;;;;;;8.62;100.00;102044.94;5052074;28;19935;-77
2024/02/03 10:30:34;;;;;;;;;;;;;;;8.61;100.00;102042.41;5071863;28;19920;-77
2024/02/03 10:33:04;;;;;;;;;;;;;;;8.60;100.00;102036.22;5070869;28;19924;-77
2024/02/03 10:35:30;;;;;;;;;;;;;;;8.58;100.00;102035.50;5063974;28;19936;-77
2024/02/03 10:37:55;;;;;;;;;;;;;;;8.52;100.00;102037.97;5072263;28;20000;-76
2024/02/03 10:40:31;;;;;;;;;;;;;;;8.53;100.00;102037.81;5062907;28;19944;-77
2024/02/03 10:42:56;;;;;;;;;;;;;;;8.55;100.00;102041.19;5070571;28;20419;-76
2024/02/03 10:45:28;;;;;;;;;;;;;;;8.55;100.00;102037.66;5071404;28;19916;-77
2024/02/03 10:47:53;;;;;;;;;;;;;;;8.59;100.00;102036.34;5068812;28;20524;-77
2024/02/03 10:50:19;;;;;;;;;;;;;;;8.61;100.00;102026.28;5070709;28;19924;-74
2024/02/03 10:52:45;;;;;;;;;;;;;;;8.66;100.00;102042.78;5066704;28;20260;-77
2024/02/03 10:55:11;;;;;;;;;;;;;;;8.65;100.00;102041.94;5068544;28;20011;-77
2024/02/03 10:57:37;;;;;;;;;;;;;;;8.62;100.00;102039.59;5067853;28;19921;-78
2024/02/03 11:00:03;;;;;;;;;;;;;;;8.56;100.00;102034.81;5068726;28;19928;-76
2024/02/03 11:02:29;;;;;;;;;;;;;;;8.60;100.00;102036.22;5049372;28;19971;-75
2024/02/03 11:04:55;;;;;;;;;;;;;;;8.60;100.00;102041.56;5069662;28;19928;-77
2024/02/03 11:07:33;;;;;;;;;;;;;;;8.68;100.00;102037.25;5070644;28;19920;-77
2024/02/03 11:10:01;;;;;;;;;;;;;;;8.68;100.00;102042.63;5050240;28;20396;-77
2024/02/03 11:12:34;;;;;;;;;;;;;;;8.67;100.00;102040.94;5066388;28;19924;-76
2024/02/03 11:14:59;;;;;;;;;;;;;;;8.63;100.00;102043.97;5065123;28;20197;-75
2024/02/03 11:17:33;;;;;;;;;;;;;;;8.65;100.00;102046.47;5069889;28;20395;-76
2024/02/03 11:20:05;;;;;;;;;;;;;;;8.65;100.00;102047.31;5069372;28;19920;-78
2024/02/03 11:22:31;;;;;;;;;;;;;;;8.65;100.00;102047.31;5069388;28;19929;-76
2024/02/03 11:24:56;;;;;;;;;;;;;;;8.61;100.00;102040.56;5065094;28;19931;-77
2024/02/03 11:27:21;;;;;;;;;;;;;;;8.61;100.00;102039.72;5050374;28;19920;-77
2024/02/03 11:29:46;;;;;;;;;;;;;;;8.62;100.00;102033.34;5067720;28;19939;-77
2024/02/03 11:32:14;;;;;;;;;;;;;;;8.64;100.00;102026.00;5069280;28;19920;-76
2024/02/03 11:34:40;;;;;;;;;;;;;;;8.60;100.00;102024.59;5060283;28;20006;-78
2024/02/03 11:37:06;;;;;;;;;;;;;;;8.58;100.00;102026.59;5068447;28;19920;-76
2024/02/03 11:39:32;;;;;;;;;;;;;;;8.60;100.00;102022.78;5071006;28;19927;-76
2024/02/03 11:41:57;;;;;;;;;;;;;;;8.57;100.00;102020.41;5068033;28;19932;-77
2024/02/03 11:44:23;;;;;;;;;;;;;;;8.58;100.00;102015.88;5070358;28;20042;-77
2024/02/03 11:46:48;;;;;;;;;;;;;;;8.56;100.00;102007.97;5076411;28;19920;-77
2024/02/03 11:49:14;;;;;;;;;;;;;;;8.57;100.00;102008.81;5077173;28;19923;-77
2024/02/03 11:51:39;;;;;;;;;;;;;;;8.63;100.00;102011.75;5047119;28;20019;-77
2024/02/03 11:54:05;;;;;;;;;;;;;;;8.63;100.00;102013.56;5057233;28;20375;-77
2024/02/03 11:56:31;;;;;;;;;;;;;;;8.57;100.00;102011.50;5070636;28;19920;-77
2024/02/03 11:58:56;;;;;;;;;;;;;;;8.61;100.00;102004.81;5068094;28;20019;-77
2024/02/03 12:01:21;;;;;;;;;;;;;;;8.60;100.00;102004.00;5069223;28;20007;-77
2024/02/03 12:03:46;;;;;;;;;;;;;;;8.67;100.00;101997.97;5070598;28;20011;-77
2024/02/03 12:06:12;;;;;;;;;;;;;;;8.59;100.00;102002.31;5068196;28;19916;-78
2024/02/03 12:08:37;;;;;;;;;;;;;;;8.39;100.00;102000.75;5068273;28;19928;-77
2024/02/03 12:11:03;;;;;;;;;;;;;;;8.33;100.00;102004.91;5076760;28;19920;-77
2024/02/03 12:13:35;;;;;;;;;;;;;;;8.35;100.00;102006.41;5069152;28;20011;-78
2024/02/03 12:16:00;;;;;;;;;;;;;;;8.31;100.00;101999.66;5080628;28;20503;-78
2024/02/03 12:18:27;;;;;;;;;;;;;;;8.25;100.00;102002.13;5068780;28;20007;-76
2024/02/03 12:20:52;;;;;;;;;;;;;;;8.16;100.00;102001.22;5072079;28;19948;-77
2024/02/03 12:23:19;;;;;;;;;;;;;;;8.21;100.00;101998.09;5074382;28;20658;-77
2024/02/03 12:25:44;;;;;;;;;;;;;;;8.12;100.00;101989.94;5066774;28;20023;-77
2024/02/03 12:28:11;;;;;;;;;;;;;;;8.12;100.00;101994.47;5057664;28;19996;-79